createdAt,value
2017-12-26T00:02:07.777Z,2.26
2017-12-26T00:04:40.124Z,2.11
2017-12-26T00:07:12.798Z,1.75
2017-12-26T00:09:43.389Z,2.29
2017-12-26T00:12:16.692Z,1.66
2017-12-26T00:14:50.923Z,2.55
2017-12-26T00:17:21.205Z,2.78
2017-12-26T00:19:51.577Z,2.29
2017-12-26T00:22:23.586Z,2.67
2017-12-26T00:24:56.898Z,1.98
2017-12-26T00:27:27.616Z,1.93
2017-12-26T00:29:58.488Z,1.93
2017-12-26T00:32:28.553Z,2.23
2017-12-26T00:35:02.443Z,1.43
2017-12-26T00:37:37.808Z,1.41
2017-12-26T00:40:15.305Z,2.02
2017-12-26T00:42:49.443Z,1.79
2017-12-26T00:45:24.909Z,1.35
2017-12-26T00:47:56.671Z,1.71
2017-12-26T00:50:31.101Z,2.28
2017-12-26T00:58:28.850Z,1.85
2017-12-26T01:04:03.711Z,1.30
2017-12-26T01:06:33.745Z,1.47
2017-12-26T01:09:03.528Z,1.28
2017-12-26T01:11:33.634Z,1.41
2017-12-26T01:14:05.102Z,1.58
2017-12-26T01:16:36.812Z,1.96
2017-12-26T01:19:09.588Z,2.03
2017-12-26T01:21:39.932Z,1.99
2017-12-26T01:24:12.860Z,1.82
2017-12-26T01:26:46.965Z,1.61
2017-12-26T01:29:19.194Z,1.54
2017-12-26T01:31:50.323Z,1.70
2017-12-26T01:34:24.610Z,2.01
2017-12-26T01:37:03.807Z,1.54
2017-12-26T01:39:34.094Z,1.75
2017-12-26T01:42:04.054Z,1.84
2017-12-26T01:44:34.259Z,1.52
2017-12-26T01:47:05.493Z,1.84
2017-12-26T01:49:35.478Z,1.23
2017-12-26T01:52:11.346Z,1.37
2017-12-26T01:54:46.420Z,2.19
2017-12-26T01:57:17.316Z,1.46
2017-12-26T01:59:48.425Z,1.79
2017-12-26T02:02:19.643Z,1.76
2017-12-26T02:04:49.605Z,1.35
2017-12-26T02:07:20.941Z,1.74
2017-12-26T02:09:51.913Z,1.56
2017-12-26T02:12:23.392Z,1.47
2017-12-26T02:14:57.448Z,2.21
2017-12-26T02:17:33.044Z,2.18
2017-12-26T02:20:06.172Z,2.48
2017-12-26T02:22:41.587Z,2.49
2017-12-26T02:25:12.714Z,2.62
2017-12-26T02:27:47.671Z,2.64
2017-12-26T02:30:18.151Z,2.87
2017-12-26T02:32:51.471Z,3.04
2017-12-26T02:35:24.458Z,3.03
2017-12-26T02:37:54.620Z,3.07
2017-12-26T02:40:27.927Z,3.15
2017-12-26T02:42:57.970Z,3.09
2017-12-26T02:45:27.807Z,3.28
2017-12-26T02:47:57.870Z,2.98
2017-12-26T02:50:29.156Z,2.90
2017-12-26T02:53:00.907Z,3.02
2017-12-26T02:55:39.313Z,2.56
2017-12-26T02:58:11.011Z,2.38
2017-12-26T03:00:42.261Z,2.53
2017-12-26T03:03:13.969Z,2.65
2017-12-26T03:05:43.760Z,2.62
2017-12-26T03:08:13.697Z,2.54
2017-12-26T03:10:46.091Z,2.44
2017-12-26T03:13:16.090Z,2.09
2017-12-26T03:15:46.052Z,2.18
2017-12-26T03:18:16.577Z,2.27
2017-12-26T03:20:46.196Z,1.82
2017-12-26T03:23:15.872Z,2.45
2017-12-26T03:25:46.328Z,1.98
2017-12-26T03:28:16.046Z,1.95
2017-12-26T03:30:47.006Z,1.98
2017-12-26T03:33:17.062Z,2.03
2017-12-26T03:35:47.607Z,1.59
2017-12-26T03:38:17.188Z,1.81
2017-12-26T03:40:47.137Z,1.83
2017-12-26T03:43:18.932Z,1.78
2017-12-26T03:45:49.427Z,2.10
2017-12-26T03:48:19.949Z,2.39
2017-12-26T03:50:50.276Z,1.99
2017-12-26T03:53:20.493Z,1.93
2017-12-26T03:55:50.770Z,1.80
2017-12-26T03:58:20.551Z,1.55
2017-12-26T04:00:50.843Z,1.58
2017-12-26T04:03:20.780Z,1.88
2017-12-26T04:05:50.441Z,1.65
2017-12-26T04:08:20.146Z,1.37
2017-12-26T04:10:53.120Z,1.65
2017-12-26T04:13:23.479Z,2.17
2017-12-26T04:15:53.744Z,1.83
2017-12-26T04:18:25.347Z,1.75
2017-12-26T04:20:55.440Z,1.59
2017-12-26T04:23:25.762Z,1.23
2017-12-26T04:25:55.825Z,1.30
2017-12-26T04:28:26.703Z,1.32
2017-12-26T04:30:56.668Z,1.63
2017-12-26T04:33:26.863Z,1.45
2017-12-26T04:35:56.903Z,1.56
2017-12-26T04:38:27.535Z,1.63
2017-12-26T04:40:58.171Z,1.58
2017-12-26T04:43:28.300Z,1.56
2017-12-26T04:45:58.204Z,1.68
2017-12-26T04:48:28.577Z,2.05
2017-12-26T04:50:58.764Z,2.23
2017-12-26T04:53:28.629Z,2.41
2017-12-26T04:55:59.472Z,3.03
2017-12-26T04:58:30.380Z,3.16
2017-12-26T05:01:00.396Z,3.64
2017-12-26T05:03:30.315Z,3.89
2017-12-26T05:05:59.918Z,3.85
2017-12-26T05:08:29.476Z,3.85
2017-12-26T05:10:59.801Z,4.09
2017-12-26T05:13:29.753Z,4.11
2017-12-26T05:15:59.207Z,4.26
2017-12-26T05:18:29.658Z,4.15
2017-12-26T05:21:00.531Z,4.40
2017-12-26T05:23:30.670Z,4.33
2017-12-26T05:26:02.813Z,4.21
2017-12-26T05:28:32.679Z,4.64
2017-12-26T05:31:03.303Z,4.51
2017-12-26T05:33:33.166Z,4.38
2017-12-26T05:36:03.862Z,4.55
2017-12-26T05:38:33.722Z,4.57
2017-12-26T05:41:04.148Z,4.72
2017-12-26T05:43:35.020Z,4.82
2017-12-26T05:46:04.973Z,4.83
2017-12-26T05:48:38.392Z,5.03
2017-12-26T05:51:08.365Z,4.95
2017-12-26T05:53:39.158Z,5.07
2017-12-26T05:56:08.934Z,5.32
2017-12-26T05:58:38.972Z,5.34
2017-12-26T06:01:08.920Z,5.42
2017-12-26T06:03:38.776Z,5.52
2017-12-26T06:06:11.978Z,5.53
2017-12-26T06:08:43.274Z,5.56
2017-12-26T06:11:14.923Z,5.60
2017-12-26T06:13:47.663Z,5.70
2017-12-26T06:16:17.725Z,5.69
2017-12-26T06:18:50.725Z,5.69
2017-12-26T06:21:22.391Z,5.69
2017-12-26T06:23:51.986Z,5.69
2017-12-26T06:26:23.125Z,5.66
2017-12-26T06:28:53.382Z,5.63
2017-12-26T06:31:24.339Z,5.63
2017-12-26T06:33:58.524Z,5.53
2017-12-26T06:36:31.073Z,5.47
2017-12-26T06:39:01.763Z,5.48
2017-12-26T06:41:34.016Z,5.40
2017-12-26T06:44:05.198Z,5.48
2017-12-26T06:46:36.008Z,5.41
2017-12-26T06:49:08.673Z,5.47
2017-12-26T06:51:39.497Z,5.43
2017-12-26T06:54:09.490Z,5.39
2017-12-26T06:56:39.794Z,5.33
2017-12-26T06:59:10.632Z,5.31
2017-12-26T07:01:40.779Z,5.28
2017-12-26T07:04:10.583Z,5.27
2017-12-26T07:06:41.316Z,5.26
2017-12-26T07:09:12.524Z,5.30
2017-12-26T07:11:42.750Z,5.28
2017-12-26T07:14:13.290Z,5.23
2017-12-26T07:16:43.236Z,5.25
2017-12-26T07:19:15.831Z,5.20
2017-12-26T07:21:50.653Z,5.16
2017-12-26T07:24:23.725Z,5.14
2017-12-26T07:26:54.131Z,5.11
2017-12-26T07:29:25.235Z,5.20
2017-12-26T07:31:57.177Z,5.18
2017-12-26T07:34:28.105Z,5.11
2017-12-26T07:36:57.997Z,5.18
2017-12-26T07:39:30.352Z,5.18
2017-12-26T07:42:01.029Z,5.22
2017-12-26T07:44:31.737Z,5.21
2017-12-26T07:47:02.082Z,5.20
2017-12-26T07:49:32.839Z,5.23
2017-12-26T07:54:25.534Z,5.29
2017-12-26T07:56:55.779Z,5.29
2017-12-26T07:59:26.556Z,5.30
2017-12-26T08:01:57.796Z,5.32
2017-12-26T08:04:31.386Z,5.30
2017-12-26T08:07:04.107Z,5.42
2017-12-26T08:09:34.879Z,5.37
2017-12-26T08:12:05.378Z,5.41
2017-12-26T08:14:39.099Z,5.42
2017-12-26T08:17:16.987Z,5.46
2017-12-26T08:19:51.490Z,5.52
2017-12-26T08:22:23.176Z,5.57
2017-12-26T08:24:55.955Z,5.67
2017-12-26T08:27:25.663Z,5.67
2017-12-26T08:29:57.079Z,5.68
2017-12-26T08:32:28.932Z,5.76
2017-12-26T08:34:58.989Z,5.80
2017-12-26T08:37:29.885Z,5.92
2017-12-26T08:40:00.023Z,5.96
2017-12-26T08:42:31.534Z,5.98
2017-12-26T08:45:02.503Z,6.06
2017-12-26T08:47:36.272Z,6.07
2017-12-26T08:50:16.785Z,6.21
2017-12-26T08:52:47.220Z,6.19
2017-12-26T08:55:17.865Z,6.28
2017-12-26T08:57:48.005Z,6.27
2017-12-26T09:00:18.736Z,6.31
2017-12-26T09:02:49.055Z,6.32
2017-12-26T09:05:19.208Z,6.47
2017-12-26T09:07:52.565Z,6.47
2017-12-26T09:10:23.072Z,6.55
2017-12-26T09:13:00.910Z,6.63
2017-12-26T09:15:32.428Z,6.69
2017-12-26T09:18:02.817Z,6.79
2017-12-26T09:20:32.611Z,6.83
2017-12-26T09:23:05.230Z,6.89
2017-12-26T09:25:36.603Z,7.03
2017-12-26T09:28:06.320Z,7.09
2017-12-26T09:30:37.048Z,7.15
2017-12-26T09:33:10.750Z,7.22
2017-12-26T09:35:41.775Z,7.28
2017-12-26T09:38:11.739Z,7.38
2017-12-26T09:40:42.185Z,7.42
2017-12-26T09:43:16.022Z,7.42
2017-12-26T09:45:47.723Z,7.55
2017-12-26T09:48:19.362Z,7.67
2017-12-26T09:50:55.747Z,7.67
2017-12-26T09:53:28.641Z,7.77
2017-12-26T09:55:59.508Z,7.79
2017-12-26T09:58:34.518Z,7.85
2017-12-26T10:01:05.464Z,7.80
2017-12-26T10:03:37.944Z,7.87
2017-12-26T10:06:08.864Z,7.94
2017-12-26T10:08:39.403Z,8.02
2017-12-26T10:11:11.879Z,8.10
2017-12-26T10:13:42.021Z,8.21
2017-12-26T10:16:17.235Z,8.44
2017-12-26T10:18:48.259Z,8.58
2017-12-26T10:21:21.353Z,8.62
2017-12-26T10:23:52.671Z,8.95
2017-12-26T10:26:27.126Z,9.27
2017-12-26T10:29:01.803Z,8.95
2017-12-26T10:31:32.850Z,9.31
2017-12-26T10:34:02.899Z,9.46
2017-12-26T10:36:33.249Z,9.50
2017-12-26T10:39:05.025Z,9.53
2017-12-26T10:41:34.923Z,9.59
2017-12-26T10:44:05.367Z,9.87
2017-12-26T10:46:35.109Z,9.92
2017-12-26T10:49:05.032Z,9.92
2017-12-26T10:51:36.851Z,10.02
2017-12-26T10:54:08.275Z,9.84
2017-12-26T10:56:38.827Z,9.73
2017-12-26T10:59:11.809Z,9.57
2017-12-26T11:01:42.395Z,9.52
2017-12-26T11:04:12.266Z,9.54
2017-12-26T11:06:42.167Z,9.36
2017-12-26T11:09:13.908Z,9.46
2017-12-26T11:11:44.909Z,9.43
2017-12-26T11:14:17.258Z,9.52
2017-12-26T11:16:49.299Z,9.54
2017-12-26T11:19:19.521Z,9.51
2017-12-26T11:21:49.267Z,9.46
2017-12-26T11:24:19.658Z,9.28
2017-12-26T11:26:49.937Z,9.08
2017-12-26T11:29:20.400Z,9.10
2017-12-26T11:31:50.948Z,8.93
2017-12-26T11:34:21.378Z,9.00
2017-12-26T11:36:51.869Z,9.04
2017-12-26T11:39:23.366Z,9.06
2017-12-26T11:41:57.006Z,9.09
2017-12-26T11:44:27.675Z,9.11
2017-12-26T11:46:58.564Z,9.07
2017-12-26T11:49:28.889Z,9.17
2017-12-26T11:51:58.959Z,9.13
2017-12-26T11:54:30.524Z,8.99
2017-12-26T11:57:01.098Z,8.78
2017-12-26T11:59:32.524Z,8.63
2017-12-26T12:02:04.300Z,8.55
2017-12-26T12:04:34.597Z,8.51
2017-12-26T12:07:05.213Z,8.47
2017-12-26T12:09:35.115Z,8.49
2017-12-26T12:12:06.312Z,8.39
2017-12-26T12:14:36.755Z,8.41
2017-12-26T12:17:08.167Z,8.37
2017-12-26T12:19:38.392Z,8.38
2017-12-26T12:22:08.722Z,8.33
2017-12-26T12:24:38.416Z,8.31
2017-12-26T12:27:08.254Z,8.35
2017-12-26T12:29:38.565Z,8.33
2017-12-26T12:32:08.591Z,8.34
2017-12-26T12:34:39.361Z,8.40
2017-12-26T12:37:09.512Z,8.31
2017-12-26T12:39:39.437Z,8.33
2017-12-26T12:42:09.342Z,8.29
2017-12-26T12:44:40.225Z,8.27
2017-12-26T12:47:10.602Z,8.20
2017-12-26T12:49:41.272Z,8.30
2017-12-26T12:52:11.946Z,8.28
2017-12-26T12:54:43.056Z,8.09
2017-12-26T12:57:12.915Z,8.09
2017-12-26T12:59:44.151Z,8.10
2017-12-26T13:02:15.812Z,8.13
2017-12-26T13:04:46.873Z,8.01
2017-12-26T13:07:20.041Z,8.04
2017-12-26T13:09:50.672Z,8.00
2017-12-26T13:12:25.270Z,8.04
2017-12-26T13:14:55.812Z,8.03
2017-12-26T13:17:26.540Z,8.00
2017-12-26T13:19:58.888Z,8.06
2017-12-26T13:22:30.669Z,7.91
2017-12-26T13:25:00.683Z,7.89
2017-12-26T13:27:31.616Z,7.74
2017-12-26T13:30:03.808Z,7.11
2017-12-26T13:32:34.565Z,7.45
2017-12-26T13:35:06.062Z,7.09
2017-12-26T13:37:39.830Z,7.14
2017-12-26T13:40:11.740Z,7.17
2017-12-26T13:42:42.646Z,6.41
2017-12-26T13:45:14.735Z,5.64
2017-12-26T13:47:46.154Z,5.59
2017-12-26T13:50:18.153Z,6.06
2017-12-26T13:52:48.993Z,5.81
2017-12-26T13:55:20.235Z,6.17
2017-12-26T13:57:51.651Z,5.90
2017-12-26T14:00:23.694Z,5.98
2017-12-26T14:02:56.419Z,6.16
2017-12-26T14:05:29.014Z,6.17
2017-12-26T14:08:03.248Z,6.12
2017-12-26T14:10:34.144Z,5.83
2017-12-26T14:13:04.172Z,5.61
2017-12-26T14:15:35.295Z,5.98
2017-12-26T14:18:08.608Z,5.99
2017-12-26T14:20:40.853Z,6.08
2017-12-26T14:23:12.169Z,5.98
2017-12-26T14:25:47.658Z,5.90
2017-12-26T14:28:18.740Z,5.99
2017-12-26T14:30:51.192Z,6.03
2017-12-26T14:33:23.244Z,6.03
2017-12-26T14:35:57.826Z,6.04
2017-12-26T14:38:30.321Z,6.11
2017-12-26T14:41:00.435Z,6.04
2017-12-26T14:43:39.922Z,6.07
2017-12-26T14:46:12.001Z,6.09
2017-12-26T14:48:44.206Z,6.13
2017-12-26T14:51:17.929Z,5.96
2017-12-26T14:53:55.255Z,6.10
2017-12-26T14:56:27.313Z,6.10
2017-12-26T14:58:57.663Z,6.09
2017-12-26T15:01:29.476Z,6.11
2017-12-26T15:04:00.796Z,6.04
2017-12-26T15:06:33.973Z,5.97
2017-12-26T15:09:07.881Z,5.85
2017-12-26T15:11:40.099Z,5.91
2017-12-26T15:14:11.905Z,5.73
2017-12-26T15:16:48.101Z,5.83
2017-12-26T15:19:19.398Z,5.84
2017-12-26T15:21:53.432Z,5.76
2017-12-26T15:24:24.564Z,5.67
2017-12-26T15:26:57.541Z,5.76
2017-12-26T15:29:29.702Z,5.70
2017-12-26T15:32:01.520Z,5.72
2017-12-26T15:34:33.041Z,5.66
2017-12-26T15:37:03.924Z,5.70
2017-12-26T15:39:35.133Z,5.60
2017-12-26T15:42:05.651Z,5.61
2017-12-26T15:44:35.841Z,5.62
2017-12-26T15:47:05.543Z,5.57
2017-12-26T15:49:36.790Z,5.73
2017-12-26T15:52:06.960Z,5.53
2017-12-26T15:54:37.142Z,5.52
2017-12-26T15:57:08.232Z,5.50
2017-12-26T15:59:39.149Z,5.52
2017-12-26T16:02:11.103Z,5.39
2017-12-26T16:04:42.626Z,5.49
2017-12-26T16:07:13.408Z,5.43
2017-12-26T16:09:45.348Z,5.32
2017-12-26T16:12:16.491Z,5.40
2017-12-26T16:14:46.383Z,5.52
2017-12-26T16:17:19.317Z,5.56
2017-12-26T16:19:50.283Z,5.53
2017-12-26T16:22:20.735Z,5.59
2017-12-26T16:24:50.494Z,5.42
2017-12-26T16:27:20.580Z,5.36
2017-12-26T16:29:50.330Z,5.46
2017-12-26T16:32:22.055Z,4.75
2017-12-26T16:34:52.012Z,5.12
2017-12-26T16:37:21.733Z,5.09
2017-12-26T16:39:53.445Z,4.90
2017-12-26T16:42:24.910Z,5.15
2017-12-26T16:44:55.271Z,5.08
2017-12-26T16:47:26.047Z,4.80
2017-12-26T16:49:56.706Z,4.84
2017-12-26T16:52:27.032Z,4.80
2017-12-26T16:54:57.778Z,4.60
2017-12-26T16:57:28.339Z,4.75
2017-12-26T16:59:59.947Z,4.76
2017-12-26T17:05:25.722Z,4.71
2017-12-26T17:07:56.691Z,4.79
2017-12-26T17:10:27.200Z,4.80
2017-12-26T17:12:58.503Z,4.74
2017-12-26T17:15:29.040Z,4.76
2017-12-26T17:18:01.592Z,4.72
2017-12-26T17:20:32.593Z,4.69
2017-12-26T17:23:03.955Z,4.73
2017-12-26T17:25:35.194Z,4.73
2017-12-26T17:28:04.898Z,4.78
2017-12-26T17:30:34.487Z,4.80
2017-12-26T17:33:05.379Z,4.77
2017-12-26T17:35:37.636Z,4.82
2017-12-26T17:38:09.352Z,4.80
2017-12-26T17:40:39.219Z,4.74
2017-12-26T17:43:09.487Z,4.79
2017-12-26T17:45:40.601Z,4.87
2017-12-26T17:48:10.806Z,4.83
2017-12-26T17:50:40.782Z,4.87
2017-12-26T17:53:11.508Z,4.91
2017-12-26T17:55:42.084Z,4.90
2017-12-26T17:58:12.241Z,4.88
2017-12-26T18:00:42.827Z,4.87
2017-12-26T18:03:13.702Z,4.79
2017-12-26T18:05:44.158Z,4.90
2017-12-26T18:08:14.230Z,4.83
2017-12-26T18:10:43.953Z,4.82
2017-12-26T18:13:14.081Z,4.85
2017-12-26T18:15:44.163Z,4.91
2017-12-26T18:18:14.333Z,4.90
2017-12-26T18:21:08.931Z,4.85
2017-12-26T18:23:40.604Z,4.76
2017-12-26T18:26:12.013Z,4.84
2017-12-26T18:31:23.390Z,4.80
2017-12-26T18:33:58.728Z,4.77
2017-12-26T18:36:30.523Z,4.71
2017-12-26T18:39:02.336Z,4.82
2017-12-26T18:41:34.439Z,4.80
2017-12-26T18:44:04.232Z,4.68
2017-12-26T18:46:36.413Z,4.80
2017-12-26T18:49:06.620Z,4.79
2017-12-26T18:51:37.975Z,4.74
2017-12-26T18:54:08.272Z,4.60
2017-12-26T18:56:39.941Z,4.73
2017-12-26T18:59:13.970Z,4.62
2017-12-26T19:01:45.185Z,4.84
2017-12-26T19:04:17.780Z,4.57
2017-12-26T19:06:52.595Z,4.63
2017-12-26T19:09:25.134Z,4.56
2017-12-26T19:11:56.663Z,4.51
2017-12-26T19:14:29.836Z,4.60
2017-12-26T19:17:04.307Z,4.62
2017-12-26T19:19:36.337Z,4.62
2017-12-26T19:22:08.406Z,4.74
2017-12-26T19:24:42.214Z,4.68
2017-12-26T19:27:17.031Z,4.68
2017-12-26T19:29:50.516Z,4.62
2017-12-26T19:32:22.843Z,4.57
2017-12-26T19:34:53.898Z,4.64
2017-12-26T19:37:26.308Z,4.56
2017-12-26T19:39:57.727Z,4.61
2017-12-26T19:42:29.658Z,4.46
2017-12-26T19:45:01.191Z,4.45
2017-12-26T19:47:32.978Z,4.48
2017-12-26T19:50:08.513Z,4.48
2017-12-26T19:52:41.193Z,4.44
2017-12-26T19:55:12.760Z,4.53
2017-12-26T19:57:49.490Z,4.54
2017-12-26T20:00:20.748Z,4.56
2017-12-26T20:02:52.351Z,4.50
2017-12-26T20:05:23.018Z,4.38
2017-12-26T20:07:54.846Z,4.45
2017-12-26T20:10:27.837Z,4.47
2017-12-26T20:13:01.229Z,4.52
2017-12-26T20:15:34.541Z,4.54
2017-12-26T20:18:09.932Z,4.53
2017-12-26T20:20:46.486Z,4.59
2017-12-26T20:23:17.668Z,4.63
2017-12-26T20:25:49.258Z,4.67
2017-12-26T20:28:25.668Z,4.60
2017-12-26T20:30:57.290Z,4.50
2017-12-26T20:33:27.791Z,4.63
2017-12-26T20:35:59.322Z,4.63
2017-12-26T20:38:33.711Z,4.59
2017-12-26T20:41:09.016Z,4.47
2017-12-26T20:43:44.026Z,4.60
2017-12-26T20:46:19.033Z,4.62
2017-12-26T20:48:54.907Z,4.83
2017-12-26T20:51:27.740Z,4.78
2017-12-26T20:54:05.777Z,4.82
2017-12-26T20:56:40.118Z,4.74
2017-12-26T20:59:15.242Z,4.85
2017-12-26T21:01:53.252Z,4.96
2017-12-26T21:04:28.020Z,4.69
2017-12-26T21:07:08.012Z,4.89
2017-12-26T21:09:42.062Z,4.80
2017-12-26T21:12:16.689Z,5.11
2017-12-26T21:14:51.895Z,4.96
2017-12-26T21:17:28.830Z,4.75
2017-12-26T21:20:13.358Z,5.13
2017-12-26T21:22:50.084Z,4.75
2017-12-26T21:25:23.992Z,4.81
2017-12-26T21:27:59.729Z,5.08
2017-12-26T21:30:32.236Z,4.99
2017-12-26T21:33:04.261Z,5.23
2017-12-26T21:35:37.699Z,4.99
2017-12-26T21:38:11.957Z,5.08
2017-12-26T21:40:46.976Z,4.93
2017-12-26T21:43:16.980Z,5.20
2017-12-26T21:45:48.675Z,5.17
2017-12-26T21:48:21.116Z,4.83
2017-12-26T21:50:52.960Z,4.98
2017-12-26T21:53:22.934Z,4.74
2017-12-26T21:55:54.376Z,4.59
2017-12-26T21:58:24.497Z,4.70
2017-12-26T22:00:56.250Z,4.65
2017-12-26T22:03:28.319Z,4.66
2017-12-26T22:05:58.606Z,4.57
2017-12-26T22:08:29.206Z,4.53
2017-12-26T22:11:03.813Z,4.88
2017-12-26T22:13:37.537Z,4.74
2017-12-26T22:16:14.706Z,4.66
2017-12-26T22:18:46.942Z,4.50
2017-12-26T22:21:20.757Z,4.56
2017-12-26T22:23:52.438Z,4.49
2017-12-26T22:26:24.855Z,4.69
2017-12-26T22:28:55.456Z,4.74
2017-12-26T22:31:30.283Z,4.56
2017-12-26T22:34:04.928Z,4.55
2017-12-26T22:36:38.109Z,4.40
2017-12-26T22:39:11.429Z,4.44
2017-12-26T22:41:47.707Z,4.41
2017-12-26T22:44:32.252Z,4.18
2017-12-26T22:47:08.982Z,4.26
2017-12-26T22:55:52.052Z,4.14
2017-12-26T23:01:20.917Z,4.12
2017-12-26T23:04:07.344Z,4.05
2017-12-26T23:12:14.370Z,4.25
2017-12-26T23:14:55.715Z,4.22
2017-12-26T23:18:27.824Z,4.31
2017-12-26T23:21:06.374Z,4.06
2017-12-26T23:23:58.501Z,4.23
2017-12-26T23:28:52.085Z,4.16
2017-12-26T23:40:31.613Z,4.04
2017-12-26T23:45:08.395Z,4.01
2017-12-26T23:49:53.880Z,3.92
2017-12-26T23:54:33.444Z,3.90
2017-12-26T23:59:18.844Z,3.95
